Terminal Aerodrome Forecast
Issued by NWS

Current Version | Previous Version | Text Only | Print | Product List | Glossary On
Versions: 1 2 3 4 5 6 7 8 9 10 11 12 13 14 15 16 17 18
714
FTUS42 KGSP 291738
TAFAND
TAF
KAND 291738Z 2918/3018 15004KT P6SM SCT050
     FM300600 08006KT P6SM BKN045
     FM300800 08006KT P6SM BKN030
     FM301100 08008KT 5SM -DZ BR OVC007
     FM301500 09008KT P6SM OVC007=

USA.gov is the U.S. government's official web portal to all federal, state and local government web resources and services.